createdAt,value
2023-02-11T00:01:20.099Z,16.83
2023-02-11T00:06:24.667Z,18.42
2023-02-11T00:11:27.673Z,18.90
2023-02-11T00:16:29.601Z,19.55
2023-02-11T00:21:31.275Z,19.48
2023-02-11T00:26:35.224Z,19.67
2023-02-11T00:31:36.864Z,18.50
2023-02-11T00:36:40.911Z,19.65
2023-02-11T00:41:42.581Z,19.02
2023-02-11T00:46:44.552Z,17.98
2023-02-11T00:51:46.472Z,18.63
2023-02-11T00:56:48.129Z,18.92
2023-02-11T01:01:49.744Z,18.77
2023-02-11T01:06:51.371Z,19.45
2023-02-11T01:11:53.229Z,14.07
2023-02-11T01:16:54.887Z,15.93
2023-02-11T01:21:56.592Z,14.27
2023-02-11T01:26:58.257Z,13.55
2023-02-11T01:32:01.155Z,12.10
2023-02-11T01:37:02.866Z,12.23
2023-02-11T01:42:04.622Z,13.00
2023-02-11T01:47:06.358Z,14.13
2023-02-11T01:52:25.483Z,13.52
2023-02-11T01:57:32.503Z,16.85
2023-02-11T02:02:46.545Z,14.90
2023-02-11T02:07:59.119Z,14.77
2023-02-11T02:13:00.705Z,15.98
2023-02-11T02:18:09.966Z,15.00
2023-02-11T02:23:31.063Z,15.35
2023-02-11T02:28:44.854Z,14.82
2023-02-11T02:34:09.534Z,15.18
2023-02-11T02:39:18.124Z,16.90
2023-02-11T02:44:20.635Z,17.35
2023-02-11T02:49:22.224Z,16.65
2023-02-11T02:54:41.956Z,17.98
2023-02-11T03:00:02.865Z,17.02
2023-02-11T03:05:12.653Z,17.73
2023-02-11T03:10:20.695Z,18.17
2023-02-11T03:15:24.858Z,17.45
2023-02-11T03:20:29.649Z,18.27
2023-02-11T03:25:38.981Z,17.67
2023-02-11T03:30:47.372Z,18.95
2023-02-11T03:35:55.597Z,18.05
2023-02-11T03:40:59.552Z,19.25
2023-02-11T03:46:03.015Z,17.77
2023-02-11T03:51:08.170Z,16.75
2023-02-11T03:56:15.363Z,17.63
2023-02-11T04:01:17.075Z,15.85
2023-02-11T04:06:18.658Z,16.70
2023-02-11T04:11:20.295Z,16.30
2023-02-11T04:16:22.188Z,17.15
2023-02-11T04:21:24.234Z,18.60
2023-02-11T04:26:25.735Z,17.42
2023-02-11T04:31:27.423Z,16.52
2023-02-11T04:36:29.086Z,15.88
2023-02-11T04:41:30.638Z,16.60
2023-02-11T04:46:32.344Z,16.27
2023-02-11T04:51:34.088Z,14.73
2023-02-11T04:56:35.626Z,14.75
2023-02-11T05:01:37.262Z,15.85
2023-02-11T05:06:39.395Z,16.50
2023-02-11T05:11:41.029Z,15.30
2023-02-11T05:16:42.638Z,13.30
2023-02-11T05:22:00.196Z,14.60
2023-02-11T05:27:03.271Z,13.75
2023-02-11T05:32:04.831Z,12.98
2023-02-11T05:37:06.514Z,13.30
2023-02-11T05:42:08.113Z,13.65
2023-02-11T05:47:09.665Z,14.50
2023-02-11T05:52:11.372Z,13.68
2023-02-11T05:57:13.605Z,15.20
2023-02-11T06:02:15.253Z,14.55
2023-02-11T06:07:17.046Z,14.70
2023-02-11T06:12:18.994Z,14.35
2023-02-11T06:17:20.649Z,15.18
2023-02-11T06:22:22.246Z,15.23
2023-02-11T06:27:24.016Z,14.25
2023-02-11T06:32:45.221Z,15.70
2023-02-11T06:37:47.340Z,15.18
2023-02-11T06:42:48.856Z,16.80
2023-02-11T06:47:51.875Z,14.95
2023-02-11T06:52:53.551Z,16.95
2023-02-11T06:57:55.186Z,16.10
2023-02-11T07:02:56.918Z,15.93
2023-02-11T07:07:58.599Z,15.52
2023-02-11T07:13:00.178Z,17.05
2023-02-11T07:18:01.884Z,16.98
2023-02-11T07:23:03.443Z,16.52
2023-02-11T07:28:05.281Z,15.50
2023-02-11T07:33:06.992Z,17.58
2023-02-11T07:38:08.534Z,16.02
2023-02-11T07:43:10.034Z,17.42
2023-02-11T07:48:11.563Z,16.90
2023-02-11T07:53:13.309Z,17.95
2023-02-11T07:58:14.848Z,16.88
2023-02-11T08:03:16.486Z,16.63
2023-02-11T08:08:18.273Z,17.83
2023-02-11T08:13:20.095Z,18.67
2023-02-11T08:18:21.646Z,19.05
2023-02-11T08:23:23.302Z,19.00
2023-02-11T08:28:25.044Z,21.40
2023-02-11T08:33:26.779Z,20.92
2023-02-11T08:38:28.381Z,21.33
2023-02-11T08:43:30.382Z,20.58
2023-02-11T08:48:32.045Z,18.42
2023-02-11T08:53:34.158Z,17.35
2023-02-11T08:58:35.775Z,17.20
2023-02-11T09:03:37.589Z,17.65
2023-02-11T09:08:42.176Z,17.05
2023-02-11T09:13:45.434Z,17.85
2023-02-11T09:18:47.857Z,17.77
2023-02-11T09:23:49.660Z,18.02
2023-02-11T09:28:51.861Z,18.00
2023-02-11T09:33:56.123Z,19.42
2023-02-11T09:39:00.627Z,17.50
2023-02-11T09:44:06.111Z,17.20
2023-02-11T09:49:15.725Z,20.00
2023-02-11T09:54:42.330Z,20.75
2023-02-11T09:59:43.959Z,16.93
2023-02-11T10:04:45.715Z,18.98
2023-02-11T10:10:00.945Z,16.40
2023-02-11T10:15:08.525Z,17.65
2023-02-11T10:20:32.967Z,19.95
2023-02-11T10:25:45.151Z,15.13
2023-02-11T10:31:11.008Z,16.95
2023-02-11T10:36:14.799Z,13.52
2023-02-11T10:41:21.326Z,16.48
2023-02-11T10:46:29.359Z,14.80
2023-02-11T10:51:33.152Z,14.57
2023-02-11T10:56:37.937Z,16.95
2023-02-11T11:01:57.212Z,16.85
2023-02-11T11:07:29.481Z,15.32
2023-02-11T11:12:33.148Z,18.08
2023-02-11T11:17:34.940Z,15.43
2023-02-11T11:22:36.676Z,16.67
2023-02-11T11:27:38.880Z,16.48
2023-02-11T11:32:42.201Z,15.55
2023-02-11T11:37:44.105Z,16.48
2023-02-11T11:42:45.879Z,17.00
2023-02-11T11:47:50.360Z,17.02
2023-02-11T11:53:05.598Z,15.68
2023-02-11T11:58:15.291Z,16.52
2023-02-11T12:03:42.015Z,16.20
2023-02-11T12:09:34.314Z,15.45
2023-02-11T12:14:41.696Z,16.58
2023-02-11T12:20:12.894Z,16.10
2023-02-11T12:25:17.166Z,16.10
2023-02-11T12:30:43.524Z,17.75
2023-02-11T12:35:50.979Z,16.47
2023-02-11T12:41:02.273Z,14.15
2023-02-11T12:46:34.082Z,13.93
2023-02-11T12:51:57.400Z,15.18
2023-02-11T12:57:20.637Z,17.25
2023-02-11T13:02:30.545Z,17.58
2023-02-11T13:07:39.860Z,17.77
2023-02-11T13:12:45.148Z,15.50
2023-02-11T13:17:54.798Z,17.17
2023-02-11T13:23:10.661Z,15.80
2023-02-11T13:28:27.402Z,15.63
2023-02-11T13:33:39.853Z,17.23
2023-02-11T13:38:51.232Z,17.02
2023-02-11T13:44:00.108Z,17.20
2023-02-11T13:49:01.897Z,17.52
2023-02-11T13:54:05.270Z,18.38
2023-02-11T13:59:26.792Z,17.48
2023-02-11T14:04:28.628Z,18.35
2023-02-11T14:09:34.778Z,17.83
2023-02-11T14:15:07.775Z,19.98
2023-02-11T14:20:36.230Z,18.65
2023-02-11T14:25:41.548Z,20.17
2023-02-11T14:30:51.573Z,18.75
2023-02-11T14:36:02.389Z,19.80
2023-02-11T14:41:24.636Z,21.80
2023-02-11T14:46:28.462Z,20.50
2023-02-11T14:51:38.460Z,20.75
2023-02-11T14:56:40.128Z,21.23
2023-02-11T15:01:42.327Z,19.90
2023-02-11T15:06:48.018Z,19.80
2023-02-11T15:16:56.440Z,20.13
2023-02-11T15:21:59.392Z,20.90
2023-02-11T15:27:13.841Z,21.02
2023-02-11T15:32:19.913Z,19.90
2023-02-11T15:37:24.674Z,15.73
2023-02-11T15:42:35.857Z,18.88
2023-02-11T15:47:49.385Z,20.37
2023-02-11T15:52:52.346Z,23.55
2023-02-11T15:57:57.371Z,19.50
2023-02-11T16:02:59.096Z,18.05
2023-02-11T16:08:12.640Z,20.55
2023-02-11T16:13:14.169Z,21.85
2023-02-11T16:18:39.882Z,56.58
2023-02-11T16:23:42.632Z,21.80
2023-02-11T16:28:44.262Z,20.38
2023-02-11T16:33:45.968Z,26.00
2023-02-11T16:38:47.613Z,24.73
2023-02-11T16:43:49.196Z,21.52
2023-02-11T16:48:51.339Z,22.25
2023-02-11T16:53:53.986Z,22.25
2023-02-11T16:58:55.563Z,21.40
2023-02-11T17:03:57.206Z,21.42
2023-02-11T17:08:58.895Z,21.45
2023-02-11T17:14:00.458Z,20.50
2023-02-11T17:19:02.032Z,23.48
2023-02-11T17:24:03.817Z,24.08
2023-02-11T17:29:10.128Z,22.50
2023-02-11T17:34:12.174Z,26.95
2023-02-11T17:39:17.436Z,22.33
2023-02-11T17:44:19.100Z,21.58
2023-02-11T17:49:20.626Z,25.05
2023-02-11T17:54:22.365Z,27.42
2023-02-11T17:59:23.916Z,24.20
2023-02-11T18:04:25.526Z,23.98
2023-02-11T18:09:27.159Z,22.48
2023-02-11T18:14:28.783Z,21.45
2023-02-11T18:19:30.373Z,22.75
2023-02-11T18:24:32.013Z,24.15
2023-02-11T18:29:33.867Z,24.38
2023-02-11T18:34:35.434Z,23.08
2023-02-11T18:39:37.318Z,26.58
2023-02-11T18:44:38.882Z,24.15
2023-02-11T18:49:40.517Z,23.88
2023-02-11T18:54:42.179Z,24.00
2023-02-11T18:59:43.720Z,27.40
2023-02-11T19:04:45.470Z,24.80
2023-02-11T19:09:47.088Z,24.48
2023-02-11T19:14:48.628Z,26.63
2023-02-11T19:19:50.326Z,24.52
2023-02-11T19:24:51.853Z,25.15
2023-02-11T19:29:53.439Z,23.80
2023-02-11T19:34:55.042Z,25.63
2023-02-11T19:39:56.612Z,28.73
2023-02-11T19:44:58.193Z,26.08
2023-02-11T19:49:59.851Z,26.98
2023-02-11T19:55:01.551Z,28.92
2023-02-11T20:00:04.975Z,30.85
2023-02-11T20:05:13.394Z,31.70
2023-02-11T20:10:15.140Z,32.63
2023-02-11T20:15:16.929Z,36.75
2023-02-11T20:20:18.580Z,32.72
2023-02-11T20:25:20.149Z,34.67
2023-02-11T20:30:21.768Z,30.27
2023-02-11T20:35:23.298Z,32.72
2023-02-11T20:40:24.879Z,28.45
2023-02-11T20:45:38.204Z,26.15
2023-02-11T20:50:40.281Z,24.58
2023-02-11T20:55:42.111Z,27.95
2023-02-11T21:00:43.759Z,25.30
2023-02-11T21:05:45.334Z,27.50
2023-02-11T21:10:48.079Z,31.77
2023-02-11T21:15:56.682Z,26.05
2023-02-11T21:21:00.939Z,24.85
2023-02-11T21:26:02.629Z,27.00
2023-02-11T21:31:05.036Z,28.08
2023-02-11T21:36:07.171Z,25.15
2023-02-11T21:41:09.187Z,24.50
2023-02-11T21:46:13.586Z,25.05
2023-02-11T21:51:19.091Z,25.50
2023-02-11T21:56:20.782Z,23.58
2023-02-11T22:01:25.652Z,23.13
2023-02-11T22:06:30.622Z,24.45
2023-02-11T22:11:32.307Z,23.35
2023-02-11T22:16:33.973Z,23.10
2023-02-11T22:21:35.548Z,22.60
2023-02-11T22:26:37.194Z,23.20
2023-02-11T22:31:39.050Z,21.88
2023-02-11T22:36:41.631Z,22.88
2023-02-11T22:41:44.866Z,24.80
2023-02-11T22:46:46.579Z,22.17
2023-02-11T22:51:48.601Z,21.55
2023-02-11T22:56:51.363Z,21.45
2023-02-11T23:01:53.174Z,21.50
2023-02-11T23:06:54.980Z,25.10
2023-02-11T23:11:56.929Z,22.15
2023-02-11T23:16:58.575Z,22.30
2023-02-11T23:22:00.374Z,24.40
2023-02-11T23:27:02.043Z,28.52
2023-02-11T23:32:03.789Z,26.88
2023-02-11T23:37:05.594Z,24.10
2023-02-11T23:42:07.185Z,24.42
2023-02-11T23:47:08.824Z,23.73
2023-02-11T23:52:10.526Z,24.05
2023-02-11T23:57:12.287Z,22.08
